createdAt,value
2022-09-12T00:02:34.425Z,100801.88
2022-09-12T00:05:25.567Z,100798.00
2022-09-12T00:08:16.038Z,100809.88
2022-09-12T00:11:12.102Z,100803.97
2022-09-12T00:14:03.515Z,100805.50
2022-09-12T00:16:54.298Z,100804.84
2022-09-12T00:19:44.673Z,100795.44
2022-09-12T00:22:35.480Z,100806.22
2022-09-12T00:25:25.456Z,100807.31
2022-09-12T00:28:17.030Z,100805.34
2022-09-12T00:31:09.499Z,100812.16
2022-09-12T00:34:02.204Z,100804.31
2022-09-12T00:36:52.289Z,100796.72
2022-09-12T00:39:42.730Z,100791.38
2022-09-12T00:42:32.929Z,100797.03
2022-09-12T00:45:29.261Z,100789.00
2022-09-12T00:48:24.532Z,100798.25
2022-09-12T00:51:15.191Z,100807.84
2022-09-12T00:54:15.468Z,100809.06
2022-09-12T00:57:09.128Z,100808.28
2022-09-12T01:00:15.134Z,100812.03
2022-09-12T01:03:10.564Z,100814.09
2022-09-12T01:06:17.561Z,100814.09
2022-09-12T01:09:09.918Z,100816.22
2022-09-12T01:12:00.507Z,100799.16
2022-09-12T01:14:50.773Z,100795.03
2022-09-12T01:18:01.072Z,100792.59
2022-09-12T01:20:53.033Z,100794.41
2022-09-12T01:24:01.515Z,100799.06
2022-09-12T01:27:12.973Z,100789.09
2022-09-12T01:30:19.500Z,100795.00
2022-09-12T01:33:40.076Z,100801.22
2022-09-12T01:36:49.600Z,100795.19
2022-09-12T01:40:21.600Z,100790.03
2022-09-12T01:43:47.160Z,100790.03
2022-09-12T01:46:46.822Z,100798.38
2022-09-12T01:50:11.468Z,100792.34
2022-09-12T01:53:18.641Z,100798.38
2022-09-12T01:56:23.764Z,100789.38
2022-09-12T01:59:57.501Z,100790.50
2022-09-12T02:03:03.716Z,100783.66
2022-09-12T02:05:59.203Z,100789.06
2022-09-12T02:08:58.667Z,100778.66
2022-09-12T02:11:49.131Z,100779.75
2022-09-12T02:14:47.162Z,100786.84
2022-09-12T02:17:42.529Z,100776.66
2022-09-12T02:20:48.085Z,100782.94
2022-09-12T02:23:42.412Z,100777.97
2022-09-12T02:26:39.097Z,100776.34
2022-09-12T02:29:29.635Z,100770.97
2022-09-12T02:32:40.382Z,100778.03
2022-09-12T02:35:50.988Z,100775.16
2022-09-12T02:38:47.268Z,100798.03
2022-09-12T02:41:37.438Z,100785.13
2022-09-12T02:44:29.888Z,100785.19
2022-09-12T02:47:27.399Z,100787.88
2022-09-12T02:50:18.035Z,100784.00
2022-09-12T02:53:09.921Z,100784.41
2022-09-12T02:56:00.084Z,100787.97
2022-09-12T02:58:51.445Z,100780.25
2022-09-12T03:01:53.791Z,100793.75
2022-09-12T03:05:04.564Z,100792.56
2022-09-12T03:08:09.996Z,100771.91
2022-09-12T03:11:45.849Z,100759.84
2022-09-12T03:15:05.965Z,100759.22
2022-09-12T03:18:15.843Z,100760.31
2022-09-12T03:21:25.370Z,100762.44
2022-09-12T03:24:34.606Z,100756.19
2022-09-12T03:27:38.131Z,100760.34
2022-09-12T03:30:30.507Z,100752.00
2022-09-12T03:33:23.117Z,100753.28
2022-09-12T03:36:33.129Z,100743.91
2022-09-12T03:39:25.643Z,100738.69
2022-09-12T03:42:15.194Z,100726.19
2022-09-12T03:45:04.747Z,100712.00
2022-09-12T03:47:55.023Z,100712.41
2022-09-12T03:50:45.339Z,100713.66
2022-09-12T03:53:36.750Z,100707.38
2022-09-12T03:56:26.682Z,100695.25
2022-09-12T03:59:16.873Z,100705.25
2022-09-12T04:02:09.326Z,100701.97
2022-09-12T04:05:00.269Z,100704.41
2022-09-12T04:07:50.714Z,100698.16
2022-09-12T04:10:43.729Z,100697.72
2022-09-12T04:13:34.289Z,100690.84
2022-09-12T04:16:24.424Z,100680.06
2022-09-12T04:19:15.097Z,100679.06
2022-09-12T04:22:05.169Z,100679.88
2022-09-12T04:24:55.850Z,100676.50
2022-09-12T04:27:49.053Z,100685.22
2022-09-12T04:30:39.405Z,100678.53
2022-09-12T04:33:32.206Z,100670.59
2022-09-12T04:36:24.246Z,100672.25
2022-09-12T04:39:15.096Z,100660.94
2022-09-12T04:42:06.105Z,100661.97
2022-09-12T04:44:58.218Z,100648.38
2022-09-12T04:47:48.781Z,100653.72
2022-09-12T04:50:39.197Z,100645.03
2022-09-12T04:53:29.520Z,100635.75
2022-09-12T04:56:20.466Z,100626.53
2022-09-12T04:59:11.040Z,100628.63
2022-09-12T05:02:01.562Z,100622.31
2022-09-12T05:04:52.663Z,100617.72
2022-09-12T05:07:43.033Z,100627.31
2022-09-12T05:10:34.394Z,100631.28
2022-09-12T05:13:24.967Z,100627.19
2022-09-12T05:16:17.368Z,100627.00
2022-09-12T05:19:07.310Z,100634.53
2022-09-12T05:21:58.229Z,100620.78
2022-09-12T05:24:50.660Z,100619.94
2022-09-12T05:27:42.832Z,100619.75
2022-09-12T05:30:34.339Z,100613.53
2022-09-12T05:33:25.261Z,100608.47
2022-09-12T05:36:26.312Z,100601.03
2022-09-12T05:39:16.562Z,100594.72
2022-09-12T05:42:08.681Z,100597.22
2022-09-12T05:44:58.938Z,100589.66
2022-09-12T05:47:49.610Z,100599.03
2022-09-12T05:50:40.394Z,100589.19
2022-09-12T05:53:32.498Z,100588.75
2022-09-12T05:56:29.693Z,100580.78
2022-09-12T05:59:23.065Z,100565.84
2022-09-12T06:02:14.362Z,100567.06
2022-09-12T06:05:04.176Z,100555.66
2022-09-12T06:07:55.592Z,100563.75
2022-09-12T06:10:46.638Z,100560.06
2022-09-12T06:13:40.214Z,100569.25
2022-09-12T06:16:33.774Z,100566.25
2022-09-12T06:19:26.478Z,100564.03
2022-09-12T06:22:16.310Z,100554.53
2022-09-12T06:25:07.371Z,100561.84
2022-09-12T06:27:57.455Z,100565.16
2022-09-12T06:30:47.874Z,100555.94
2022-09-12T06:33:40.141Z,100551.88
2022-09-12T06:36:33.063Z,100546.56
2022-09-12T06:39:24.981Z,100565.03
2022-09-12T06:42:16.245Z,100568.03
2022-09-12T06:45:18.610Z,100572.22
2022-09-12T06:48:12.255Z,100570.34
2022-09-12T06:51:16.200Z,100573.91
2022-09-12T06:54:06.914Z,100556.09
2022-09-12T06:56:57.458Z,100550.06
2022-09-12T06:59:50.621Z,100539.53
2022-09-12T07:02:41.447Z,100540.34
2022-09-12T07:05:31.969Z,100542.69
2022-09-12T07:08:22.160Z,100542.91
2022-09-12T07:11:23.981Z,100547.09
2022-09-12T07:14:16.775Z,100552.94
2022-09-12T07:17:10.688Z,100549.19
2022-09-12T07:20:03.248Z,100549.34
2022-09-12T07:22:54.095Z,100544.09
2022-09-12T07:25:44.603Z,100540.69
2022-09-12T07:28:35.696Z,100530.06
2022-09-12T07:31:27.367Z,100526.00
2022-09-12T07:34:17.352Z,100527.34
2022-09-12T07:37:08.425Z,100522.81
2022-09-12T07:39:59.503Z,100510.91
2022-09-12T07:42:49.695Z,100518.72
2022-09-12T07:45:43.796Z,100525.72
2022-09-12T07:48:34.307Z,100527.03
2022-09-12T07:51:27.617Z,100512.75
2022-09-12T07:54:19.212Z,100506.19
2022-09-12T07:57:10.140Z,100512.94
2022-09-12T08:00:01.040Z,100499.63
2022-09-12T08:02:56.612Z,100506.78
2022-09-12T08:05:47.534Z,100506.00
2022-09-12T08:08:38.724Z,100521.44
2022-09-12T08:11:30.613Z,100521.69
2022-09-12T08:14:20.364Z,100504.03
2022-09-12T08:17:12.091Z,100494.03
2022-09-12T08:20:02.323Z,100486.75
2022-09-12T08:22:53.124Z,100476.16
2022-09-12T08:25:45.247Z,100477.22
2022-09-12T08:28:38.026Z,100485.78
2022-09-12T08:31:30.456Z,100488.31
2022-09-12T08:34:20.962Z,100489.97
2022-09-12T08:37:11.330Z,100498.41
2022-09-12T08:40:02.139Z,100496.94
2022-09-12T08:43:12.104Z,100502.19
2022-09-12T08:46:19.724Z,100494.72
2022-09-12T08:49:13.668Z,100486.81
2022-09-12T08:52:16.576Z,100499.31
2022-09-12T08:55:09.172Z,100498.50
2022-09-12T08:58:01.911Z,100508.09
2022-09-12T09:01:00.306Z,100512.47
2022-09-12T09:03:59.007Z,100518.50
2022-09-12T09:07:17.834Z,100532.72
2022-09-12T09:10:11.614Z,100539.81
2022-09-12T09:13:06.989Z,100541.50
2022-09-12T09:16:16.978Z,100544.22
2022-09-12T09:19:30.491Z,100542.34
2022-09-12T09:22:39.840Z,100537.34
2022-09-12T09:26:10.659Z,100557.56
2022-09-12T09:29:28.218Z,100566.34
2022-09-12T09:32:29.374Z,100571.13
2022-09-12T09:35:21.564Z,100572.78
2022-09-12T09:38:51.087Z,100586.56
2022-09-12T09:41:51.302Z,100594.44
2022-09-12T09:44:41.940Z,100599.84
2022-09-12T09:47:32.624Z,100601.13
2022-09-12T09:50:22.869Z,100603.59
2022-09-12T09:53:27.906Z,100606.09
2022-09-12T09:56:31.337Z,100614.84
2022-09-12T09:59:33.069Z,100611.94
2022-09-12T10:02:27.868Z,100617.75
2022-09-12T10:05:19.653Z,100608.59
2022-09-12T10:08:12.976Z,100604.84
2022-09-12T10:11:24.566Z,100614.22
2022-09-12T10:14:41.042Z,100616.50
2022-09-12T10:17:34.805Z,100615.66
2022-09-12T10:20:41.484Z,100613.59
2022-09-12T10:23:38.862Z,100615.69
2022-09-12T10:26:35.380Z,100616.50
2022-09-12T10:29:34.563Z,100625.44
2022-09-12T10:32:41.420Z,100630.84
2022-09-12T10:35:34.928Z,100630.63
2022-09-12T10:38:30.819Z,100631.88
2022-09-12T10:41:21.222Z,100643.13
2022-09-12T10:44:17.830Z,100640.81
2022-09-12T10:47:37.330Z,100635.22
2022-09-12T10:50:32.505Z,100636.22
2022-09-12T10:53:29.916Z,100651.44
2022-09-12T10:56:25.078Z,100647.25
2022-09-12T10:59:43.847Z,100654.31
2022-09-12T11:02:54.628Z,100651.84
2022-09-12T11:06:01.877Z,100660.16
2022-09-12T11:09:17.603Z,100667.03
2022-09-12T11:12:47.092Z,100664.56
2022-09-12T11:16:09.158Z,100661.81
2022-09-12T11:19:13.600Z,100652.66
2022-09-12T11:22:26.717Z,100662.03
2022-09-12T11:25:41.645Z,100662.25
2022-09-12T11:28:54.001Z,100658.50
2022-09-12T11:32:15.088Z,100662.25
2022-09-12T11:35:30.929Z,100670.56
2022-09-12T11:38:45.979Z,100679.31
2022-09-12T11:41:42.804Z,100688.00
2022-09-12T11:44:45.494Z,100684.91
2022-09-12T11:47:37.688Z,100678.84
2022-09-12T11:50:33.222Z,100680.53
2022-09-12T11:53:31.417Z,100703.84
2022-09-12T11:56:21.887Z,100702.34
2022-09-12T11:59:36.242Z,100698.41
2022-09-12T12:02:31.619Z,100707.56
2022-09-12T12:05:26.769Z,100704.22
2022-09-12T12:08:17.332Z,100715.06
2022-09-12T12:11:11.894Z,100708.22
2022-09-12T12:14:28.599Z,100709.69
2022-09-12T12:17:25.603Z,100708.22
2022-09-12T12:20:20.900Z,100712.19
2022-09-12T12:23:36.686Z,100715.75
2022-09-12T12:26:46.879Z,100725.94
2022-09-12T12:29:43.396Z,100730.53
2022-09-12T12:32:53.206Z,100724.28
2022-09-12T12:35:49.962Z,100732.22
2022-09-12T12:38:42.442Z,100733.66
2022-09-12T12:41:38.181Z,100745.56
2022-09-12T12:44:55.800Z,100760.53
2022-09-12T12:47:50.972Z,100755.13
2022-09-12T12:50:40.972Z,100754.09
2022-09-12T12:53:31.357Z,100756.97
2022-09-12T12:56:41.535Z,100760.97
2022-09-12T12:59:32.742Z,100767.97
2022-09-12T13:02:59.295Z,100772.22
2022-09-12T13:05:50.570Z,100774.72
2022-09-12T13:08:42.877Z,100783.03
2022-09-12T13:11:39.151Z,100785.13
2022-09-12T13:14:44.803Z,100785.94
2022-09-12T13:17:45.543Z,100783.00
2022-09-12T13:20:39.468Z,100782.19
2022-09-12T13:23:32.114Z,100786.75
2022-09-12T13:26:29.239Z,100786.34
2022-09-12T13:29:23.308Z,100783.88
2022-09-12T13:32:13.447Z,100788.06
2022-09-12T13:35:30.656Z,100782.00
2022-09-12T13:38:30.855Z,100785.53
2022-09-12T13:41:55.106Z,100789.28
2022-09-12T13:44:52.914Z,100783.88
2022-09-12T13:47:52.542Z,100785.53
2022-09-12T13:51:07.179Z,100784.50
2022-09-12T13:54:00.022Z,100779.72
2022-09-12T13:56:51.197Z,100781.31
2022-09-12T13:59:44.082Z,100783.63
2022-09-12T14:02:38.319Z,100783.81
2022-09-12T14:05:28.919Z,100773.84
2022-09-12T14:08:21.140Z,100773.84
2022-09-12T14:11:20.803Z,100764.69
2022-09-12T14:14:28.749Z,100764.69
2022-09-12T14:17:27.481Z,100766.38
2022-09-12T14:20:22.082Z,100761.34
2022-09-12T14:23:31.810Z,100749.28
2022-09-12T14:26:24.910Z,100749.66
2022-09-12T14:29:18.573Z,100748.44
2022-09-12T14:32:30.246Z,100743.03
2022-09-12T14:35:22.592Z,100738.84
2022-09-12T14:38:18.924Z,100735.72
2022-09-12T14:41:12.114Z,100725.13
2022-09-12T14:44:06.375Z,100727.19
2022-09-12T14:46:56.756Z,100729.91
2022-09-12T14:49:49.195Z,100735.50
2022-09-12T14:52:39.857Z,100735.91
2022-09-12T14:55:35.549Z,100732.16
2022-09-12T14:58:28.319Z,100731.75
2022-09-12T15:01:25.327Z,100732.78
2022-09-12T15:04:49.504Z,100739.88
2022-09-12T15:07:58.306Z,100734.22
2022-09-12T15:10:48.589Z,100737.97
2022-09-12T15:13:43.313Z,100739.63
2022-09-12T15:16:33.507Z,100738.38
2022-09-12T15:19:23.473Z,100742.97
2022-09-12T15:22:14.932Z,100742.50
2022-09-12T15:25:06.555Z,100746.25
2022-09-12T15:27:57.574Z,100738.94
2022-09-12T15:30:50.874Z,100732.88
2022-09-12T15:33:41.139Z,100729.75
2022-09-12T15:36:31.657Z,100726.22
2022-09-12T15:39:22.166Z,100729.16
2022-09-12T15:42:12.654Z,100731.22
2022-09-12T15:45:02.984Z,100726.84
2022-09-12T15:47:53.548Z,100732.84
2022-09-12T15:50:44.399Z,100719.13
2022-09-12T15:53:34.292Z,100711.44
2022-09-12T15:56:24.877Z,100717.69
2022-09-12T15:59:15.115Z,100707.91
2022-09-12T16:02:07.129Z,100709.97
2022-09-12T16:04:57.489Z,100712.47
2022-09-12T16:07:48.018Z,100713.31
2022-09-12T16:10:38.355Z,100721.22
2022-09-12T16:13:28.613Z,100719.56
2022-09-12T16:16:19.124Z,100724.31
2022-09-12T16:19:13.187Z,100723.09
2022-09-12T16:22:03.515Z,100728.50
2022-09-12T16:24:54.029Z,100722.06
2022-09-12T16:27:44.709Z,100713.91
2022-09-12T16:30:40.160Z,100705.00
2022-09-12T16:33:31.280Z,100699.16
2022-09-12T16:36:23.418Z,100698.31
2022-09-12T16:39:13.686Z,100684.78
2022-09-12T16:42:04.996Z,100692.09
2022-09-12T16:44:54.720Z,100699.56
2022-09-12T16:47:45.057Z,100691.22
2022-09-12T16:50:36.202Z,100690.81
2022-09-12T16:53:29.068Z,100688.50
2022-09-12T16:56:19.128Z,100681.84
2022-09-12T16:59:11.115Z,100678.31
2022-09-12T17:02:00.525Z,100677.47
2022-09-12T17:04:51.080Z,100677.69
2022-09-12T17:07:41.377Z,100687.25
2022-09-12T17:10:32.394Z,100683.50
2022-09-12T17:13:22.322Z,100677.47
2022-09-12T17:16:13.722Z,100679.50
2022-09-12T17:19:04.049Z,100677.81
2022-09-12T17:21:54.908Z,100680.97
2022-09-12T17:24:45.295Z,100684.53
2022-09-12T17:27:35.395Z,100679.13
2022-09-12T17:30:25.023Z,100664.97
2022-09-12T17:33:16.021Z,100660.72
2022-09-12T17:36:10.697Z,100664.84
2022-09-12T17:39:01.188Z,100660.19
2022-09-12T17:41:53.173Z,100658.91
2022-09-12T17:44:43.007Z,100659.69
2022-09-12T17:47:33.194Z,100658.81
2022-09-12T17:50:32.124Z,100655.06
2022-09-12T17:53:23.443Z,100663.94
2022-09-12T17:56:14.579Z,100663.31
2022-09-12T17:59:04.720Z,100649.53
2022-09-12T18:02:12.632Z,100653.28
2022-09-12T18:05:07.024Z,100651.59
2022-09-12T18:07:56.922Z,100628.31
2022-09-12T18:10:47.446Z,100634.75
2022-09-12T18:13:37.624Z,100633.09
2022-09-12T18:16:29.847Z,100637.84
2022-09-12T18:19:20.013Z,100633.31
2022-09-12T18:22:10.851Z,100628.47
2022-09-12T18:25:01.072Z,100623.72
2022-09-12T18:27:50.530Z,100623.06
2022-09-12T18:30:43.251Z,100628.28
2022-09-12T18:33:34.315Z,100625.78
2022-09-12T18:36:24.214Z,100617.03
2022-09-12T18:39:14.526Z,100614.31
2022-09-12T18:42:04.552Z,100620.75
2022-09-12T18:44:55.191Z,100624.50
2022-09-12T18:47:44.968Z,100629.91
2022-09-12T18:50:35.177Z,100632.00
2022-09-12T18:53:25.228Z,100622.41
2022-09-12T18:56:16.372Z,100624.47
2022-09-12T18:59:06.900Z,100621.56
2022-09-12T19:01:57.118Z,100619.25
2022-09-12T19:04:47.475Z,100617.78
2022-09-12T19:07:37.298Z,100625.22
2022-09-12T19:10:27.634Z,100633.94
2022-09-12T19:13:18.875Z,100633.09
2022-09-12T19:16:11.241Z,100638.94
2022-09-12T19:19:03.951Z,100633.94
2022-09-12T19:21:54.884Z,100641.81
2022-09-12T19:24:45.078Z,100641.00
2022-09-12T19:27:35.178Z,100651.81
2022-09-12T19:30:25.243Z,100647.06
2022-09-12T19:33:15.944Z,100643.44
2022-09-12T19:36:21.950Z,100649.50
2022-09-12T19:39:20.904Z,100650.13
2022-09-12T19:42:10.823Z,100659.66
2022-09-12T19:45:00.645Z,100648.22
2022-09-12T19:47:50.589Z,100659.00
2022-09-12T19:50:41.118Z,100660.84
2022-09-12T19:53:32.165Z,100665.44
2022-09-12T19:56:21.780Z,100667.50
2022-09-12T19:59:12.629Z,100650.44
2022-09-12T20:02:05.123Z,100661.06
2022-09-12T20:04:55.636Z,100671.22
2022-09-12T20:07:45.737Z,100671.56
2022-09-12T20:10:35.851Z,100669.25
2022-09-12T20:13:26.170Z,100669.91
2022-09-12T20:16:22.330Z,100665.91
2022-09-12T20:19:12.695Z,100664.91
2022-09-12T20:22:02.753Z,100666.94
2022-09-12T20:24:52.615Z,100667.78
2022-09-12T20:27:42.567Z,100674.84
2022-09-12T20:30:32.594Z,100669.00
2022-09-12T20:33:22.733Z,100670.69
2022-09-12T20:36:19.249Z,100676.06
2022-09-12T20:39:10.104Z,100677.09
2022-09-12T20:42:00.406Z,100677.75
2022-09-12T20:44:50.992Z,100681.47
2022-09-12T20:47:41.012Z,100682.25
2022-09-12T20:50:31.154Z,100686.63
2022-09-12T20:53:21.355Z,100687.63
2022-09-12T20:56:12.000Z,100689.31
2022-09-12T20:59:04.428Z,100696.75
2022-09-12T21:01:55.042Z,100698.06
2022-09-12T21:04:45.051Z,100698.06
2022-09-12T21:07:34.303Z,100694.72
2022-09-12T21:10:24.348Z,100702.16
2022-09-12T21:13:17.585Z,100705.88
2022-09-12T21:16:10.011Z,100700.50
2022-09-12T21:19:01.000Z,100691.53
2022-09-12T21:21:51.061Z,100700.09
2022-09-12T21:24:41.162Z,100691.75
2022-09-12T21:27:32.023Z,100700.00
2022-09-12T21:30:22.266Z,100703.56
2022-09-12T21:33:13.112Z,100694.81
2022-09-12T21:36:07.469Z,100707.47
2022-09-12T21:39:01.971Z,100708.44
2022-09-12T21:41:51.853Z,100702.00
2022-09-12T21:44:42.302Z,100706.38
2022-09-12T21:47:31.975Z,100703.94
2022-09-12T21:50:22.820Z,100710.75
2022-09-12T21:53:12.592Z,100706.00
2022-09-12T21:56:08.447Z,100713.81
2022-09-12T21:58:58.486Z,100714.47
2022-09-12T22:02:10.210Z,100714.66
2022-09-12T22:05:00.378Z,100720.25
2022-09-12T22:07:50.326Z,100723.59
2022-09-12T22:10:41.556Z,100731.03
2022-09-12T22:13:33.424Z,100727.69
2022-09-12T22:16:24.218Z,100730.41
2022-09-12T22:19:16.468Z,100730.56
2022-09-12T22:22:24.846Z,100722.69
2022-09-12T22:25:15.603Z,100741.38
2022-09-12T22:28:05.130Z,100737.56
2022-09-12T22:30:56.113Z,100742.78
2022-09-12T22:33:49.411Z,100745.03
2022-09-12T22:36:39.411Z,100756.28
2022-09-12T22:39:30.611Z,100758.34
2022-09-12T22:42:24.065Z,100758.97
2022-09-12T22:45:15.825Z,100765.56
2022-09-12T22:48:09.239Z,100769.13
2022-09-12T22:50:59.593Z,100779.06
2022-09-12T22:53:51.176Z,100784.47
2022-09-12T22:56:42.168Z,100788.19
2022-09-12T22:59:32.644Z,100792.75
2022-09-12T23:02:24.649Z,100800.66
2022-09-12T23:05:16.124Z,100803.34
2022-09-12T23:08:09.012Z,100804.00
2022-09-12T23:11:14.483Z,100799.81
2022-09-12T23:14:04.667Z,100812.75
2022-09-12T23:16:54.652Z,100818.13
2022-09-12T23:19:44.750Z,100827.47
2022-09-12T23:22:34.933Z,100820.38
2022-09-12T23:25:25.654Z,100830.97
2022-09-12T23:28:16.291Z,100834.34
2022-09-12T23:31:06.848Z,100831.84
2022-09-12T23:33:58.360Z,100838.91
2022-09-12T23:36:48.002Z,100844.31
2022-09-12T23:39:38.924Z,100839.94
2022-09-12T23:42:29.142Z,100839.72
2022-09-12T23:45:19.375Z,100844.09
2022-09-12T23:48:10.237Z,100839.06
2022-09-12T23:51:00.620Z,100837.13
2022-09-12T23:53:50.632Z,100842.16
2022-09-12T23:56:40.664Z,100849.22
2022-09-12T23:59:32.419Z,100838.06
